Luis Sánchez

Chefscout - Racing Club
22 Feb 2028
Dienstag
Verarbeitung

Persönlichkeit

Anpassungsfähigkeit (3) Ehrgeiz (19) Kontroverse (16) Loyalität (2) Druck (11) Professionalität (15) Fairness (5) Temperament (16)

Profil

Trainerstil Demokratisch
Lizenz Nationale A
Entschlossenheit 5
Menschenführung 13
Motivation 13
Disziplin 7
Arbeitszufriedenheit
91%
Ermüdung
0%
Rolle Chefscout
Gehalt 20.8K p/W
Vertrag 14.03.2028

Leistung

Verhalten Gut
Trainingseffektivität
52%
Spielerentwicklung
70%
Verletzungsprävention
65%
Taktische Umsetzung
75%

Letzte Ereignisse

Vertragsverhandlung begonnen jetzt
Spieler begutachtet jetzt
Spieler begutachtet jetzt
Nahm an einer Scouting-Besprechung teil jetzt
Empfahl ein Transferziel jetzt
Vertragsverhandlung begonnen 7T her
Vertragsverhandlung begonnen 7T her
Spieler begutachtet 7T her

Aktuell beobachtet

200
Spieler Verein Status Fähigkeit Vertrauen Beobachtet Zuletzt beobachtet Letzte Stimme
Jon Pacheco Real Sociedad Aktiv 134 / 133 40% 3 21.02.2028 -
Francho Serrano Getafe Aktiv 126 / 116 40% 2 21.02.2028 -
Kerim Alajbegović Modena Aktiv 136 / 130 40% 1 21.02.2028 -
Ihor Horbach Zorya Aktiv 107 / 120 40% 1 21.02.2028 -
Adrian Segecic Portsmouth Aktiv 119 / 118 40% 1 21.02.2028 -
Malick Thiaw West Ham United Aktiv 157 / 164 40% 1 21.02.2028 -
Gustavo Mantuan Zenit Aktiv 140 / 134 40% 11 20.02.2028 -
Dodo Fiorentina Aktiv 158 / 154 40% 3 20.02.2028 -
Ethan Laird Birmingham Aktiv 131 / 126 40% 1 20.02.2028 -
Anton Stach Leeds United Aktiv 149 / 143 40% 5 18.02.2028 -
Wendel Zenit Aktiv 143 / 151 40% 2 17.02.2028 -
Alfonso Pedraza Modena Aktiv 143 / 152 40% 2 17.02.2028 -
Lucas Da Cunha Como Aktiv 153 / 156 40% 1 17.02.2028 -
Shea Lacey Wolverhampton Aktiv 132 / 129 40% 3 16.02.2028 -
Cristian Gutiérrez Las Palmas Aktiv 130 / 137 40% 1 16.02.2028 -
Kirill Glebov CSKA Moscow Aktiv 137 / 125 40% 1 16.02.2028 -
Alexandr Kovalenko Sochi Aktiv 120 / 118 40% 1 16.02.2028 -
Emircan Gürlük Fakel Aktiv 113 / 124 40% 2 15.02.2028 -
Dmitry Pestryakov Dinamo Moscow Aktiv 119 / 116 40% 1 15.02.2028 -
Reuell Walters Luton Town Aktiv 120 / 121 40% 1 15.02.2028 -
Nikita Saltykov Rotor Aktiv 121 / 126 40% 2 14.02.2028 -
Prince Adu Kwabena Standard Liege Aktiv 132 / 138 40% 1 14.02.2028 -
Matteo Prati Cagliari Aktiv 140 / 147 40% 4 13.02.2028 -
Oumar Solet Udinese Aktiv 152 / 149 40% 1 13.02.2028 -
Jesús Rodríguez Como Aktiv 148 / 143 40% 1 12.02.2028 -
Matías Soulé AS Roma Aktiv 159 / 160 40% 1 12.02.2028 -
Felipe Augusto Zenit Aktiv 133 / 142 40% 1 12.02.2028 -
Matt Clarke Derby County Aktiv 135 / 140 40% 1 09.02.2028 -
Ilja Vakhania Krasnodar Aktiv 124 / 119 40% 1 09.02.2028 -
Youssouf Fofana AC Milan Aktiv 156 / 164 40% 3 08.02.2028 -
Joško Gvardiol Napoli Aktiv 173 / 164 40% 2 08.02.2028 -
Sergey Pinyaev Lokomotiv Moscow Aktiv 130 / 129 40% 1 08.02.2028 -
Ruan Alanyaspor Aktiv 132 / 135 40% 1 08.02.2028 -
Nico Paz Real Sociedad Aktiv 166 / 167 40% 1 07.02.2028 -
Unai Gómez Udinese Aktiv 140 / 144 40% 1 06.02.2028 -
Matheus Alves Lokomotiv Moscow Aktiv 137 / 149 40% 1 06.02.2028 -
Christian Krasnodar Aktiv 139 / 135 40% 9 02.02.2028 -
Arsen Adamov Akhmat Grozny Aktiv 124 / 135 40% 1 02.02.2028 -
Martín Garay Tigre Aktiv 122 / 124 40% 2 01.02.2028 -
Peru Nolaskoain Eibar Aktiv 127 / 129 40% 3 31.01.2028 -
Victor Torp Coventry City Aktiv 133 / 124 40% 2 31.01.2028 -
Jon Balda Real Sociedad Aktiv 131 / 135 40% 1 31.01.2028 -
Alex Luna Instituto Aktiv 132 / 134 40% 1 31.01.2028 -
Nicolás Tripichio San Lorenzo Aktiv 128 / 127 40% 2 29.01.2028 -
Valentín Serrano Arsenal Aktiv 116 / 117 40% 2 29.01.2028 -
Joaquín Gho Argentinos Juniors Aktiv 130 / 126 40% 1 29.01.2028 -
Braian Aranda Agropecuario Argentino Aktiv 115 / 121 40% 1 29.01.2028 -
Adrià Altimira Deportivo La Coruña Aktiv 139 / 126 40% 2 25.01.2028 -
Kevin Paredes River Plate Aktiv 134 / 134 40% 2 25.01.2028 -
Mauro Arambarri River Plate Aktiv 151 / 146 40% 8 24.01.2028 -
Angeliño AS Roma Aktiv 155 / 143 40% 3 24.01.2028 -
Arnau Comas Deportivo La Coruña Aktiv 128 / 138 40% 2 24.01.2028 -
Tomás Silva Platense Aktiv 130 / 131 40% 2 23.01.2028 -
Maximiliano Meléndez Chacarita Juniors Aktiv 120 / 117 40% 1 23.01.2028 -
Vicente Poggi Godoy Cruz Aktiv 124 / 126 40% 1 23.01.2028 -
Nacho Martín Gijón Aktiv 122 / 129 40% 1 22.01.2028 -
Emanuel Coronel Rosario Central Aktiv 132 / 124 40% 1 21.01.2028 -
Samuel Lucero Defensa y Justicia Aktiv 121 / 118 40% 2 20.01.2028 -
Assane Diao Lazio Aktiv 154 / 165 40% 2 20.01.2028 -
Iñaki Larthirigoyen San Telmo Aktiv 124 / 121 40% 1 19.01.2028 -
Tomás Ferreyra Defensores Unidos Aktiv 110 / 104 40% 1 19.01.2028 -
Lautaro Villegas Banfield Aktiv 113 / 106 40% 1 19.01.2028 -
Emanuel Mammana Vélez Aktiv 129 / 124 40% 1 17.01.2028 -
Tomás O'Connor Gimnasia y Esgrima Aktiv 122 / 117 40% 1 17.01.2028 -
Santiago González Tigre Aktiv 132 / 134 40% 4 16.01.2028 -
Álex Marchal Real Sociedad Aktiv 117 / 125 40% 2 16.01.2028 -
Agustín Villalobos Godoy Cruz Aktiv 107 / 106 40% 1 13.01.2028 -
Rubens Dinamo Moscow Aktiv 131 / 131 40% 10 11.01.2028 -
Ramiro Hernandes Belgrano Aktiv 119 / 131 40% 1 11.01.2028 -
Tomás Aranda Boca Juniors Aktiv 113 / 114 40% 1 11.01.2028 -
José Mercado Union Magdalena Aktiv 107 / 110 40% 1 10.01.2028 -
Tomás Porra Barracas Central Aktiv 119 / 118 40% 1 09.01.2028 Mehr Infos nötig
Matías Bergara Nueva Chicago Aktiv 111 / 113 40% 1 09.01.2028 -
Sheyko Studer Independiente Rivadavia Aktiv 128 / 124 40% 1 06.01.2028 -
Mateo Mendoza Godoy Cruz Aktiv 127 / 130 40% 2 04.01.2028 -
Lucas Souto Defensa y Justicia Aktiv 130 / 123 40% 1 04.01.2028 -
Julio Alonso Huesca Aktiv 122 / 116 40% 1 03.01.2028 -
Wílder Viera Instituto Verloren 110 / 116 83% 1 20.12.2027 Befürworten
José Luis Palomino Talleres Verloren 117 / 126 83% 1 01.12.2027 -
Donyell Malen AS Roma Aktiv 150 / 145 40% 1 01.12.2027 -
Lorenzo Lucca Napoli Aktiv 152 / 148 40% 1 01.12.2027 -
Levi Garcia Spartak Moscow Aktiv 143 / 137 40% 1 01.12.2027 -
Giacomo Raspadori Atalanta Aktiv 158 / 158 40% 1 30.11.2027 -
Juan Brunetta FC Copenhagen Verloren 140 / 140 40% 1 30.11.2027 -
Ollie Watkins Estudiantes Aktiv 157 / 151 40% 1 30.11.2027 -
Luca Babino Huracán Aktiv 108 / 123 83% 1 28.06.2027 Befürworten
Facundo Bernal Betis Aktiv 134 / 130 40% 8 29.05.2027 -
Christ Inao Oulaï Fiorentina Aktiv 137 / 133 40% 5 27.05.2027 -
Trai Hume Sunderland Aktiv 134 / 137 40% 5 25.05.2027 -
Victor Parada Spartak Moscow Aktiv 125 / 119 40% 8 23.05.2027 -
Nicolò Savona Nottingham Forest Aktiv 142 / 141 40% 3 20.05.2027 -
Bafodé Diakité Bournemouth Aktiv 139 / 151 40% 1 17.05.2027 -
Danil Glebov Dinamo Moscow Aktiv 134 / 127 40% 7 14.05.2027 -
Josh King Chelsea Aktiv 137 / 134 40% 6 08.05.2027 -
Alexandr Chernikov Krasnodar Aktiv 132 / 120 40% 9 27.04.2027 -
Caspar Jander Southampton Aktiv 129 / 140 40% 1 18.04.2027 -
Dean Huijsen Villarreal Aktiv 142 / 152 40% 2 06.04.2027 -
Samú Al-Nassr Aktiv 141 / 136 40% 8 05.04.2027 -
Zaydou Youssouf Al-Fateh Aktiv 133 / 120 40% 4 18.03.2027 -
Mohammed Abu Al-Shamat Al-Qadisiyah Aktiv 129 / 121 40% 2 15.03.2027 -
Dion Lopy Al-Ittihad Aktiv 133 / 135 40% 4 10.03.2027 -
Valentin Atangana Al-Ahli Aktiv 136 / 142 40% 2 05.03.2027 -
Alexandr Siljanov Lokomotiv Moscow Aktiv 131 / 138 40% 3 26.02.2027 -
Mahamadou Doumbia Al-Ittihad Aktiv 134 / 127 40% 2 23.02.2027 -
Ali Majrashi Al-Ahli Aktiv 132 / 133 40% 1 22.02.2027 -
Matvey Kislyak CSKA Moscow Aktiv 138 / 135 40% 3 20.02.2027 -
Rahim Ibrahim Slovan Bratislava Aktiv 130 / 123 40% 4 18.02.2027 -
Gastón Álvarez Al-Qadisiyah Aktiv 133 / 124 40% 1 06.02.2027 -
Bradley Tau SuperSport United Aktiv 119 / 115 40% 2 29.01.2027 -
Eric Meza Estudiantes Aktiv 128 / 118 40% 1 28.01.2027 -
Pedro Bicalho Qarabag Aktiv 124 / 136 40% 1 28.01.2027 -
Ayrton Costa Boca Juniors Aktiv 127 / 136 40% 1 15.01.2027 -
Nail Umyarov Spartak Moscow Aktiv 121 / 120 40% 1 11.01.2027 -
Francisco Álvarez Argentinos Juniors Aktiv 125 / 116 40% 3 06.01.2027 -
Damián Fernández Defensa y Justicia Aktiv 126 / 122 40% 1 06.01.2027 -
Filip Kaloč Ludogorets Aktiv 132 / 120 40% 1 02.01.2027 -
Jelle Bataille Maccabi Haifa Aktiv 124 / 116 40% 1 01.01.2027 -
Franco Ibarra Rosario Central Aktiv 134 / 123 40% 1 28.12.2026 -
Santiago Núñez Estudiantes Aktiv 122 / 133 40% 1 27.12.2026 -
Mojmír Chytil NK Maribor Aktiv 129 / 140 40% 1 14.12.2026 -
Manfred Ugalde Spartak Moscow Aktiv 128 / 132 40% 1 14.12.2026 -
Felipe Peña Biafore Lanús Aktiv 125 / 135 40% 1 06.12.2026 -
Galeno Al-Ahli Aktiv 148 / 150 40% 1 30.11.2026 -
Breel Embolo Atlanta United FC Aktiv 140 / 138 40% 8 29.11.2026 -
Renato Tapia Al Wasl Aktiv 140 / 129 40% 2 29.11.2026 -
Jhon Jhon Zenit Aktiv 130 / 122 40% 3 28.11.2026 -
Sergej Milinković-Savić Al-Hilal Aktiv 163 / 155 40% 3 27.11.2026 -
Fabián Paris Saint-Germain Aktiv 159 / 161 40% 5 25.11.2026 -
Rúben Neves Al-Hilal Aktiv 145 / 145 40% 4 25.11.2026 -
Crysencio Summerville Al-Hilal Aktiv 137 / 150 40% 3 25.11.2026 -
Oussama Idrissi Pachuca Aktiv 136 / 131 40% 2 24.11.2026 -
Maxim Glushenkov Zenit Aktiv 145 / 142 40% 3 23.11.2026 -
Ruben van Bommel Ferencvaros Aktiv 132 / 139 40% 1 23.11.2026 -
Yves Bissouma Tottenham Aktiv 148 / 138 40% 3 20.11.2026 -
Ryan Gauld Vancouver Whitecaps Aktiv 134 / 141 40% 4 17.11.2026 -
Petar Stanić Ludogorets Aktiv 137 / 128 40% 1 17.11.2026 -
Allan Saint-Maximin Charlotte Football Club Aktiv 144 / 147 40% 4 13.11.2026 -
Romano Schmid Frosinone Aktiv 148 / 130 40% 2 12.11.2026 -
Esequiel Barco Spartak Moscow Aktiv 139 / 129 40% 1 12.11.2026 -
Musa Barrow Al-Khaleej Aktiv 130 / 146 40% 4 11.11.2026 -
Oscar Al-Taawoun Aktiv 141 / 139 40% 6 10.11.2026 Beobachten
Houssem Aouar Al-Ittihad Aktiv 146 / 137 40% 3 08.11.2026 -
Matt Freese New York City Aktiv 134 / 133 40% 5 07.11.2026 -
Pedrinho Shakhtar Aktiv 138 / 131 40% 3 05.11.2026 -
Zack Steffen Spartak Moscow Aktiv 136 / 119 40% 1 05.11.2026 -
Jonathan Bamba Chicago Fire Aktiv 136 / 129 40% 4 29.10.2026 -
Senny Mayulu Paris Saint-Germain Aktiv 145 / 135 40% 2 27.10.2026 -
Álvaro Fernández Mallorca Aktiv 139 / 141 40% 1 26.10.2026 -
Leon Bailey Olympiacos Aktiv 144 / 139 40% 2 24.10.2026 -
Sergio Reguilón Inter Miami CF Aktiv 133 / 142 40% 6 23.10.2026 -
Nikola Vasilj Al-Diriyah Aktiv 139 / 142 40% 3 22.10.2026 -
Keisuke Osako Sanfrecce Hiroshima Aktiv 139 / 128 40% 3 22.10.2026 -
Ryosuke Kojima Kashiwa Reysol Aktiv 133 / 132 40% 1 22.10.2026 -
Gabriel Jesus Barcelona Aktiv 157 / 153 40% 7 16.10.2026 -
Kerem Aktürkoğlu Fenerbahce Aktiv 147 / 147 40% 5 14.10.2026 -
Barış Alper Yılmaz Galatasaray Aktiv 143 / 150 40% 3 14.10.2026 -
Francesco Pio Esposito Inter Aktiv 141 / 156 40% 1 14.10.2026 -
Rômulo RB Leipzig Aktiv 140 / 143 40% 1 14.10.2026 -
Tomoki Hayakawa Kashima Antlers Aktiv 139 / 132 40% 1 09.10.2026 -
Philip Billing FC Midtjylland Aktiv 130 / 127 40% 1 07.10.2026 -
Petar Musa Adana Demirspor Aktiv 138 / 125 40% 1 07.10.2026 -
Rubén Blanco Yokohama F. Marinos Aktiv 137 / 126 40% 2 06.10.2026 -
Brais Méndez Columbus Crew Aktiv 147 / 154 40% 2 01.10.2026 -
Eduard Spertsyan Al-Ahli Aktiv 147 / 135 40% 2 29.09.2026 -
Jesús Angulo Tigres Aktiv 137 / 131 40% 3 20.09.2026 -
Orbelín Pineda Monterrey Aktiv 140 / 143 40% 1 20.09.2026 -
Erick Reyes Toluca Aktiv 140 / 138 40% 1 20.09.2026 -
Maxim De Cuyper Brighton Aktiv 136 / 135 40% 1 18.09.2026 -
Luis Romo Guadalajara Aktiv 137 / 134 40% 3 17.09.2026 -
Leroy Sané Galatasaray Aktiv 154 / 144 40% 4 17.09.2026 -
Patrick Berg Bodo/Glimt Aktiv 138 / 147 40% 1 10.09.2026 -
Richard Ledezma Guadalajara Aktiv 132 / 135 40% 1 06.09.2026 -
Václav Černý Besiktas Aktiv 135 / 137 40% 1 02.09.2026 -
Alejandro Zendejas Club America Aktiv 135 / 138 40% 4 29.08.2026 -
Rasmus Kristensen FC Midtjylland Aktiv 135 / 133 40% 1 29.08.2026 -
Carlos Rodríguez Cruz Azul Aktiv 132 / 129 40% 3 27.08.2026 -
Thorgan Witsel KV Oostende Aktiv 130 / 147 40% 1 27.08.2026 -
Luca Duarte Arsenal Aktiv 86 / 91 42% 1 / 1m 26.08.2026 -
Fernando Monetti Ferro Carril Oeste Aktiv 125 / 125 30% 1 / 1m 26.08.2026 -
Predrag Rajković Racing Genk Aktiv 142 / 145 40% 1 23.08.2026 -
Alan Sosa Tigre Aktiv 120 / 120 30% 1 / 1m 19.08.2026 -
Danilo Ruiz Díaz Agropecuario Argentino Aktiv 116 / 119 52% 1 / 1m 19.08.2026 -
Franco Aguirre San Telmo Aktiv 105 / 105 30% 1 / 1m 19.08.2026 -
Facundo De La Vega Aldosivi Aktiv 103 / 106 52% 1 / 1m 19.08.2026 -
Tobias Canale Almagro Aktiv 84 / 89 30% 1 / 1m 19.08.2026 -
Uriel La Roza Defensa y Justicia Aktiv 111 / 116 52% 1 / 1m 19.08.2026 -
Nahuel Denis Gimnasia y Esgrima Aktiv 98 / 101 30% 1 / 1m 19.08.2026 -
Christian Tielemans KV Oostende Aktiv 145 / 151 40% 1 18.08.2026 -
Lucas Torreira Galatasaray Aktiv 148 / 148 40% 1 18.08.2026 -
João Palhinha Benfica Aktiv 148 / 159 40% 1 14.08.2026 -
Stanislav Lobotka Galatasaray Aktiv 160 / 152 40% 1 13.08.2026 -
João Gomes Aston Villa Aktiv 140 / 127 40% 1 11.08.2026 -
Ricardo Horta Braga Aktiv 154 / 160 40% 1 10.08.2026 -
Jan Bednarek Porto Aktiv 150 / 139 40% 1 10.08.2026 -
Shota Fukuoka Gamba Osaka Aktiv 129 / 125 40% 1 09.08.2026 -
Kasper Dolberg Ajax Aktiv 140 / 148 40% 1 07.08.2026 -
Kyle Walker-Peters West Ham United Aktiv 141 / 139 40% 1 04.08.2026 -
Álex Berenguer Athletic Bilbao Aktiv 147 / 141 40% 1 02.08.2026 -
Marcos Llorente Atlético Madrid Aktiv 150 / 152 40% 1 02.08.2026 -
Nikola Vlašić Torino Aktiv 149 / 137 40% 1 02.08.2026 -